Time;durP1;ratioP1;P1;durP2;ratioP2;P2;SDS_P1;SDS_P2;PMS_P1;PMS_P2;Temp;Humidity;BMP_temperature;BMP_pressure;BME280_temperature;BME280_humidity;BME280_pressure;Samples;Min_cycle;Max_cycle;Signal;HPM_P1;HPM_P2
2022/08/10 00:01:25;;;;;;;;;6.50;6.50;;;;;23.06;44.45;101327.75;5076213;28;45345;-69
2022/08/10 00:03:51;;;;;;;;;6.00;6.00;;;;;23.02;44.45;101326.31;5075920;27;45469;-70
2022/08/10 00:06:16;;;;;;;;;6.00;6.00;;;;;22.98;43.71;101320.34;5075877;27;45309;-71
2022/08/10 00:08:42;;;;;;;;;8.00;8.00;;;;;22.95;44.24;101322.41;5076033;27;45836;-72
2022/08/10 00:11:07;;;;;;;;;5.25;5.25;;;;;22.89;44.24;101318.41;5076428;27;45345;-73
2022/08/10 00:13:33;;;;;;;;;8.00;8.00;;;;;22.86;44.32;101314.16;5075693;27;45409;-69
2022/08/10 00:15:59;;;;;;;;;7.25;7.25;;;;;22.82;44.57;101320.72;5076125;27;45882;-70
2022/08/10 00:18:25;;;;;;;;;8.00;8.00;;;;;22.78;44.67;101311.22;5075615;27;45509;-74
2022/08/10 00:20:51;;;;;;;;;8.00;8.00;;;;;22.75;44.67;101317.69;5076044;27;45409;-69
2022/08/10 00:23:16;;;;;;;;;7.00;7.00;;;;;22.70;44.88;101313.69;5075304;27;45529;-70
2022/08/10 00:25:42;;;;;;;;;8.75;6.75;;;;;22.64;45.08;101315.00;5075699;27;45345;-69
2022/08/10 00:28:07;;;;;;;;;8.00;8.00;;;;;22.64;44.84;101319.53;5076038;27;45217;-69
2022/08/10 00:30:33;;;;;;;;;5.75;5.75;;;;;22.53;44.92;101302.47;5075958;27;45310;-69
2022/08/10 00:32:58;;;;;;;;;6.25;6.25;;;;;22.54;45.27;101316.72;5075320;27;45997;-69
2022/08/10 00:35:24;;;;;;;;;7.75;7.75;;;;;22.49;45.17;101311.75;5075291;27;45279;-69
2022/08/10 00:37:49;;;;;;;;;9.75;9.75;;;;;22.42;45.66;101310.50;5074187;27;45379;-70
2022/08/10 00:40:15;;;;;;;;;3.50;3.50;;;;;22.46;45.32;101318.19;5075677;27;45594;-71
2022/08/10 00:42:40;;;;;;;;;7.00;7.00;;;;;22.43;45.24;101309.53;5075286;27;45952;-69
2022/08/10 00:45:06;;;;;;;;;8.00;8.00;;;;;22.40;45.60;101315.13;5075704;27;45295;-73
2022/08/10 00:47:31;;;;;;;;;7.25;7.25;;;;;22.36;45.68;101305.63;5075461;27;45525;-71
2022/08/10 00:49:56;;;;;;;;;8.00;8.00;;;;;22.19;45.84;101291.69;5075629;27;45364;-74
2022/08/10 00:52:24;;;;;;;;;6.50;6.50;;;;;22.28;45.53;101304.41;5075387;27;45475;-69
2022/08/10 00:54:51;;;;;;;;;6.50;6.50;;;;;22.28;45.87;101304.41;5075327;27;45365;-69
2022/08/10 00:57:18;;;;;;;;;7.00;7.00;;;;;22.26;45.71;101306.31;5075189;27;45302;-70
2022/08/10 00:59:43;;;;;;;;;7.00;7.00;;;;;22.23;46.00;101308.41;5075416;27;45298;-70
2022/08/10 01:02:08;;;;;;;;;6.00;6.00;;;;;22.19;45.98;101305.09;5075360;27;46375;-71
2022/08/10 01:04:34;;;;;;;;;6.00;6.00;;;;;22.17;46.16;101307.03;5075060;27;45358;-69
2022/08/10 01:07:48;;;;;;;;;7.00;7.00;;;;;22.14;46.11;101308.16;5075169;27;45202;-68
2022/08/10 01:10:34;;;;;;;;;6.50;6.50;;;;;22.10;46.36;101300.44;5032780;28;45512;-70
2022/08/10 01:13:05;;;;;;;;;6.00;6.00;;;;;22.06;46.19;101307.91;5074681;27;45518;-70
2022/08/10 01:15:39;;;;;;;;;6.50;6.50;;;;;22.02;46.67;101307.25;5074784;27;45456;-69
2022/08/10 01:18:12;;;;;;;;;9.00;9.00;;;;;21.99;46.60;101301.31;5075096;28;45334;-70
2022/08/10 01:20:49;;;;;;;;;8.00;8.00;;;;;21.97;46.44;101300.56;5075470;27;45504;-69
2022/08/10 01:23:41;;;;;;;;;5.75;5.75;;;;;21.95;46.46;101299.84;5074860;27;45466;-68
2022/08/10 01:26:25;;;;;;;;;6.50;6.50;;;;;21.94;46.70;101296.28;5074992;27;45390;-70
2022/08/10 01:28:59;;;;;;;;;7.00;7.00;;;;;21.89;46.66;101302.03;5075112;27;45546;-72
2022/08/10 01:31:29;;;;;;;;;7.00;7.00;;;;;21.86;46.73;101296.91;5075225;27;45332;-68
2022/08/10 01:34:00;;;;;;;;;7.75;7.75;;;;;21.85;47.04;101299.69;5074633;27;46353;-74
2022/08/10 01:36:43;;;;;;;;;7.50;7.50;;;;;21.83;46.83;101302.50;5090383;27;45446;-70
2022/08/10 01:39:14;;;;;;;;;6.75;6.75;;;;;21.82;47.05;101300.78;5075271;28;45192;-70
2022/08/10 01:41:43;;;;;;;;;6.50;6.50;;;;;21.77;46.75;101297.59;5075361;27;45446;-70
2022/08/10 01:44:17;;;;;;;;;5.75;5.75;;;;;21.75;47.05;101296.88;5074828;28;45307;-69
2022/08/10 01:46:47;;;;;;;;;6.75;6.75;;;;;21.73;46.85;101288.06;5077459;28;45295;-69
2022/08/10 01:49:16;;;;;;;;;7.00;7.00;;;;;21.68;47.27;101285.75;5078490;27;45414;-71
2022/08/10 01:51:46;;;;;;;;;7.25;7.25;;;;;21.66;47.54;101285.03;5078783;27;45323;-74
2022/08/10 01:54:14;;;;;;;;;6.00;6.00;;;;;21.65;47.40;101293.16;5078272;27;45590;-69
2022/08/10 01:56:43;;;;;;;;;5.50;5.50;;;;;21.64;47.01;101294.13;5078187;27;45439;-71
2022/08/10 01:59:13;;;;;;;;;7.00;7.00;;;;;21.60;47.38;101290.81;5077930;27;45275;-70
2022/08/10 02:01:42;;;;;;;;;8.25;8.25;;;;;21.57;47.68;101291.88;5078149;27;45300;-69
2022/08/10 02:04:10;;;;;;;;;6.75;6.75;;;;;21.54;47.52;101284.09;5077943;27;45502;-70
2022/08/10 02:06:41;;;;;;;;;7.00;7.00;;;;;21.51;47.75;101278.97;5077897;27;45388;-70
2022/08/10 02:09:07;;;;;;;;;6.50;6.50;;;;;21.48;47.77;101287.22;5077790;27;45306;-69
2022/08/10 02:11:37;;;;;;;;;8.00;8.00;;;;;21.44;48.00;101289.31;5077871;27;45519;-69
2022/08/10 02:14:04;;;;;;;;;7.00;7.00;;;;;21.42;47.82;101282.34;5077253;28;45367;-70
2022/08/10 02:16:31;;;;;;;;;6.00;6.00;;;;;21.37;48.16;101287.19;5077559;27;45325;-71
2022/08/10 02:18:58;;;;;;;;;7.50;6.00;;;;;21.35;48.12;101284.66;5077742;27;45294;-72
2022/08/10 02:21:28;;;;;;;;;6.75;6.75;;;;;21.33;48.44;101291.06;5078181;27;45427;-71
2022/08/10 02:23:56;;;;;;;;;6.00;6.00;;;;;21.22;48.30;101271.31;5077803;27;46603;-71
2022/08/10 02:26:23;;;;;;;;;7.75;7.75;;;;;21.27;48.35;101287.03;5077941;27;45181;-73
2022/08/10 02:28:51;;;;;;;;;7.50;7.50;;;;;21.24;48.38;101290.78;5077918;27;45244;-70
2022/08/10 02:31:21;;;;;;;;;8.00;8.00;;;;;21.21;47.99;101292.84;5078142;27;45580;-69
2022/08/10 02:33:49;;;;;;;;;6.75;6.75;;;;;21.22;48.50;101294.56;5077359;27;46530;-70
2022/08/10 02:36:16;;;;;;;;;5.25;5.25;;;;;21.19;48.28;101286.72;5077474;28;45180;-70
2022/08/10 02:38:48;;;;;;;;;7.25;7.25;;;;;21.19;48.55;101289.41;5077542;27;45308;-72
2022/08/10 02:41:37;;;;;;;;;6.75;6.75;;;;;21.15;48.66;101288.78;5077882;28;45334;-73
2022/08/10 02:44:09;;;;;;;;;6.00;6.00;;;;;21.12;48.69;101297.88;5076998;27;46268;-70
2022/08/10 02:47:17;;;;;;;;;8.00;8.00;;;;;21.10;48.84;101298.97;5077035;27;45314;-71
2022/08/10 02:49:50;;;;;;;;;7.00;7.00;;;;;21.02;49.45;101292.38;5065743;27;45619;-72
2022/08/10 02:52:20;;;;;;;;;3.00;3.00;;;;;21.00;49.02;101302.34;5077895;27;45224;-71
2022/08/10 02:54:54;;;;;;;;;7.00;7.00;;;;;20.97;49.16;101301.69;5077541;27;46296;-69
2022/08/10 02:57:26;;;;;;;;;7.25;7.25;;;;;20.97;48.94;101297.22;5076948;27;45331;-70
2022/08/10 02:59:59;;;;;;;;;5.75;5.75;;;;;20.96;49.13;101299.97;5077202;27;45354;-69
2022/08/10 03:02:39;;;;;;;;;6.25;6.25;;;;;20.84;49.29;101288.38;5077210;27;45389;-72
2022/08/10 03:05:08;;;;;;;;;9.00;9.00;;;;;20.90;49.46;101297.75;5076582;27;45571;-69
2022/08/10 03:07:57;;;;;;;;;10.25;10.25;;;;;20.85;49.40;101301.63;5076530;27;45313;-68
2022/08/10 03:10:27;;;;;;;;;8.75;8.75;;;;;20.82;49.57;101301.84;5076756;27;45252;-68
2022/08/10 03:13:02;;;;;;;;;11.00;11.00;;;;;20.80;49.43;101301.09;5076741;27;45196;-67
2022/08/10 03:15:30;;;;;;;;;13.75;13.75;;;;;20.75;49.78;101299.72;5076403;27;45552;-68
2022/08/10 03:17:57;;;;;;;;;14.00;14.00;;;;;20.71;49.56;101291.03;5076136;27;45235;-67
2022/08/10 03:20:23;;;;;;;;;11.50;11.50;;;;;20.69;49.60;101298.31;5076554;27;45358;-68
2022/08/10 03:22:50;;;;;;;;;11.00;11.00;;;;;20.64;49.41;101289.78;5076672;27;45461;-67
2022/08/10 03:25:20;;;;;;;;;11.75;11.75;;;;;20.60;49.85;101298.97;5076465;27;46432;-70
2022/08/10 03:27:47;;;;;;;;;8.50;8.50;;;;;20.54;49.60;101292.25;5076644;27;45353;-72
2022/08/10 03:30:12;;;;;;;;;12.25;12.25;;;;;20.50;50.31;101294.28;5076446;27;45296;-68
2022/08/10 03:32:39;;;;;;;;;12.00;12.00;;;;;20.47;49.96;101290.97;5076854;27;45589;-70
2022/08/10 03:35:06;;;;;;;;;15.50;15.50;;;;;20.40;50.14;101283.38;5076094;27;46479;-69
2022/08/10 03:37:32;;;;;;;;;12.25;12.25;;;;;20.35;50.59;101285.53;5076001;27;45397;-70
2022/08/10 03:39:57;;;;;;;;;12.50;12.50;;;;;20.34;50.72;101291.00;5076380;28;45338;-70
2022/08/10 03:42:26;;;;;;;;;9.25;9.25;;;;;20.28;50.27;101292.28;5076591;27;45499;-69
2022/08/10 03:44:52;;;;;;;;;11.75;11.75;;;;;20.28;50.48;101297.63;5076324;27;45448;-71
2022/08/10 03:47:20;;;;;;;;;11.25;11.00;;;;;20.26;50.92;101299.53;5076588;27;45438;-70
2022/08/10 03:49:50;;;;;;;;;10.50;10.50;;;;;20.23;50.95;101294.41;5076610;27;45473;-71
2022/08/10 03:52:17;;;;;;;;;11.25;10.50;;;;;20.20;50.92;101294.63;5058180;27;45710;-70
2022/08/10 03:54:43;;;;;;;;;13.75;13.50;;;;;20.21;50.93;101291.88;5075849;28;46423;-68
2022/08/10 03:57:09;;;;;;;;;13.75;13.00;;;;;20.17;51.05;101298.38;5091748;27;45345;-69
2022/08/10 03:59:36;;;;;;;;;10.00;10.00;;;;;20.14;51.44;101298.56;5076167;27;45452;-70
2022/08/10 04:02:05;;;;;;;;;10.00;10.00;;;;;20.13;51.61;101296.84;5076424;27;45396;-72
2022/08/10 04:04:31;;;;;;;;;7.25;7.25;;;;;20.07;51.15;101292.81;5075765;27;46213;-69
2022/08/10 04:06:57;;;;;;;;;7.75;7.75;;;;;20.07;51.18;101290.13;5075780;27;45252;-69
2022/08/10 04:09:25;;;;;;;;;7.50;7.50;;;;;20.01;51.35;101285.22;5075467;28;45431;-70
2022/08/10 04:11:50;;;;;;;;;7.75;7.75;;;;;19.97;51.99;101295.25;5076182;27;45438;-69
2022/08/10 04:14:16;;;;;;;;;6.25;6.25;;;;;19.93;51.86;101296.41;5075744;27;45957;-69
2022/08/10 04:16:41;;;;;;;;;6.75;6.75;;;;;19.94;51.82;101305.31;5075757;27;45418;-70
2022/08/10 04:19:07;;;;;;;;;6.25;6.25;;;;;19.95;51.58;101309.69;5075633;27;45234;-71
2022/08/10 04:21:37;;;;;;;;;7.75;7.75;;;;;19.92;51.93;101305.38;5076046;27;45495;-69
2022/08/10 04:24:06;;;;;;;;;7.25;7.25;;;;;19.90;51.60;101304.63;5075530;27;46185;-70
2022/08/10 04:26:31;;;;;;;;;8.00;8.00;;;;;19.91;51.98;101306.34;5075536;27;45552;-70
2022/08/10 04:28:57;;;;;;;;;6.00;6.00;;;;;19.91;52.08;101303.69;5075722;27;45324;-69
2022/08/10 04:31:26;;;;;;;;;6.50;6.50;;;;;19.89;51.86;101297.56;5075534;27;45384;-68
2022/08/10 04:33:54;;;;;;;;;6.00;6.00;;;;;19.89;51.88;101302.91;5075363;27;45596;-70
2022/08/10 04:36:21;;;;;;;;;6.75;6.75;;;;;19.86;51.88;101297.78;5074091;28;45372;-68
2022/08/10 04:38:51;;;;;;;;;5.50;5.50;;;;;19.88;51.81;101305.69;5075233;27;45344;-69
2022/08/10 04:41:16;;;;;;;;;9.50;9.50;;;;;19.88;52.04;101306.53;5075442;27;45441;-68
2022/08/10 04:43:42;;;;;;;;;6.00;6.00;;;;;19.91;52.21;101305.50;5075018;27;45403;-69
2022/08/10 04:46:07;;;;;;;;;7.50;7.50;;;;;19.92;51.76;101309.91;5075303;27;45363;-72
2022/08/10 04:48:33;;;;;;;;;7.50;7.50;;;;;19.89;51.62;101313.56;5075170;27;45401;-73
2022/08/10 04:50:58;;;;;;;;;5.25;5.25;;;;;19.88;51.99;101311.88;5075521;27;45303;-73
2022/08/10 04:53:24;;;;;;;;;7.00;7.00;;;;;19.89;51.94;101310.06;5075157;27;46080;-70
2022/08/10 04:55:49;;;;;;;;;6.50;6.50;;;;;19.86;52.22;101313.78;5075385;27;45352;-69
2022/08/10 04:58:15;;;;;;;;;7.00;7.00;;;;;19.88;52.12;101319.88;5075275;28;45295;-70
2022/08/10 05:00:40;;;;;;;;;3.00;3.00;;;;;19.84;52.01;101319.25;5074146;28;45324;-71
2022/08/10 05:03:06;;;;;;;;;7.00;7.00;;;;;19.82;52.22;101318.50;5074896;27;45385;-75
2022/08/10 05:05:31;;;;;;;;;6.25;6.25;;;;;19.83;51.88;101324.69;5075130;27;45396;-74
2022/08/10 05:07:57;;;;;;;;;6.00;6.00;;;;;19.83;51.96;101320.22;5075358;27;45384;-75
2022/08/10 05:10:22;;;;;;;;;7.25;7.25;;;;;19.84;52.00;101321.03;5075546;27;45553;-72
2022/08/10 05:12:47;;;;;;;;;7.00;7.00;;;;;19.85;52.25;101333.44;5076058;27;46477;-71
2022/08/10 05:15:16;;;;;;;;;8.00;7.75;;;;;19.83;52.32;101327.34;5079436;27;45338;-73
2022/08/10 05:17:42;;;;;;;;;5.25;5.25;;;;;19.85;52.15;101330.75;5091871;27;45456;-70
2022/08/10 05:20:10;;;;;;;;;7.75;7.75;;;;;19.86;52.53;101329.81;5076269;27;45379;-72
2022/08/10 05:22:41;;;;;;;;;5.50;5.50;;;;;19.85;52.35;101330.75;5078900;27;45423;-71
2022/08/10 05:25:09;;;;;;;;;7.00;7.00;;;;;19.85;52.61;101328.09;5078309;27;45509;-71
2022/08/10 05:27:35;;;;;;;;;6.00;6.00;;;;;19.83;52.43;101320.22;5078272;27;45298;-70
2022/08/10 05:30:02;;;;;;;;;7.00;7.00;;;;;19.84;52.67;101324.59;5078449;27;45406;-70
2022/08/10 05:32:27;;;;;;;;;6.25;6.25;;;;;19.83;52.16;101330.00;5078131;27;46514;-69
2022/08/10 05:34:53;;;;;;;;;7.50;7.50;;;;;19.86;52.33;101340.47;5078746;27;45154;-71
2022/08/10 05:37:18;;;;;;;;;7.75;7.75;;;;;19.84;52.48;101337.94;5078505;27;45504;-69
2022/08/10 05:39:45;;;;;;;;;7.50;7.50;;;;;19.83;52.91;101341.56;5078406;27;45521;-71
2022/08/10 05:42:11;;;;;;;;;7.00;7.00;;;;;19.80;52.56;101328.41;5078079;27;46446;-70
2022/08/10 05:44:37;;;;;;;;;8.00;8.00;;;;;19.81;52.80;101330.13;5078090;27;45474;-69
2022/08/10 05:47:04;;;;;;;;;8.00;8.00;;;;;19.85;52.67;101334.31;5078150;27;45429;-68
2022/08/10 05:49:29;;;;;;;;;5.50;5.50;;;;;19.82;52.38;101333.63;5078241;27;45534;-69
2022/08/10 05:51:55;;;;;;;;;10.00;10.00;;;;;19.84;52.38;101332.59;5077911;27;45348;-68
2022/08/10 05:54:20;;;;;;;;;8.50;8.50;;;;;19.86;52.25;101329.81;5078455;28;45445;-70
2022/08/10 05:56:48;;;;;;;;;6.75;6.75;;;;;19.92;52.88;101328.56;5078143;27;45354;-69
2022/08/10 05:59:15;;;;;;;;;7.25;7.25;;;;;19.95;52.58;101339.06;5077691;27;45256;-68
2022/08/10 06:01:43;;;;;;;;;6.00;6.00;;;;;19.97;52.34;101337.97;5092830;27;45302;-68
2022/08/10 06:04:12;;;;;;;;;6.25;6.25;;;;;19.97;52.61;101335.31;5077187;27;45406;-70
2022/08/10 06:06:39;;;;;;;;;6.50;6.50;;;;;20.00;52.21;101344.94;5077564;27;45230;-69
2022/08/10 06:09:06;;;;;;;;;6.25;6.25;;;;;20.02;52.52;101342.13;5077534;27;45184;-68
2022/08/10 06:11:34;;;;;;;;;8.50;8.50;;;;;20.03;52.54;101341.19;5077048;27;45421;-69
2022/08/10 06:16:47;;;;;;;;;9.75;9.75;;;;;20.09;52.48;101340.75;5076155;27;45399;-72
2022/08/10 06:19:13;;;;;;;;;9.00;8.75;;;;;20.13;52.33;101350.28;5076469;27;45553;-71
2022/08/10 06:21:39;;;;;;;;;8.25;8.25;;;;;20.08;52.04;101339.03;5074615;28;47133;-70
2022/08/10 06:24:09;;;;;;;;;9.50;9.50;;;;;20.20;52.22;101354.25;5074662;27;45756;-70
2022/08/10 06:26:35;;;;;;;;;9.00;9.00;;;;;20.24;51.98;101345.06;5076597;27;45374;-70
2022/08/10 06:29:08;;;;;;;;;10.25;10.25;;;;;20.27;51.75;101341.31;5076405;27;45467;-72
2022/08/10 06:31:43;;;;;;;;;8.00;8.00;;;;;20.37;51.82;101354.91;5075928;27;46897;-70
2022/08/10 06:34:10;;;;;;;;;11.50;11.50;;;;;20.44;52.19;101356.19;5076183;27;45374;-70
2022/08/10 06:36:38;;;;;;;;;10.00;10.00;;;;;20.51;51.92;101349.44;5075367;27;45461;-70
2022/08/10 06:39:04;;;;;;;;;11.50;11.50;;;;;20.56;51.75;101357.13;5076080;27;45612;-68
2022/08/10 06:41:33;;;;;;;;;8.25;8.25;;;;;20.65;51.56;101358.31;5075585;27;45789;-69
2022/08/10 06:44:04;;;;;;;;;11.25;10.50;;;;;20.75;51.33;101353.19;5075890;27;45433;-70
2022/08/10 06:46:35;;;;;;;;;8.00;8.00;;;;;20.81;50.98;101356.28;5075869;27;45319;-70
2022/08/10 06:49:03;;;;;;;;;6.50;6.50;;;;;20.90;50.86;101359.25;5076202;27;45508;-73
2022/08/10 06:51:37;;;;;;;;;8.00;8.00;;;;;20.98;50.96;101364.91;5076113;27;45419;-70
2022/08/10 06:54:06;;;;;;;;;11.00;11.00;;;;;21.03;50.42;101362.75;5075529;27;45357;-73
2022/08/10 06:56:35;;;;;;;;;10.00;10.00;;;;;21.13;50.72;101362.97;5075435;27;45361;-73
2022/08/10 06:59:28;;;;;;;;;8.25;8.25;;;;;21.21;50.26;101359.72;5075828;27;45535;-73
2022/08/10 07:02:01;;;;;;;;;9.50;9.50;;;;;21.27;50.10;101362.78;5075454;28;45832;-69
2022/08/10 07:04:31;;;;;;;;;11.00;11.00;;;;;21.34;50.22;101365.88;5076006;27;45472;-69
2022/08/10 07:07:04;;;;;;;;;11.50;11.50;;;;;21.41;50.01;101364.47;5075771;28;45277;-71
2022/08/10 07:09:33;;;;;;;;;9.00;9.00;;;;;21.52;49.74;101368.16;5075893;27;45497;-69
2022/08/10 07:11:59;;;;;;;;;10.00;10.00;;;;;21.63;49.51;101359.31;5075513;27;46203;-69
2022/08/10 07:14:27;;;;;;;;;8.50;8.50;;;;;21.71;49.05;101363.19;5036403;27;1114586;-69
2022/08/10 07:16:54;;;;;;;;;9.25;9.25;;;;;21.83;49.15;101360.53;5076963;27;45378;-74
2022/08/10 07:19:22;;;;;;;;;9.75;9.75;;;;;21.88;49.03;101358.38;5077333;27;46139;-71
2022/08/10 07:21:50;;;;;;;;;9.00;9.00;;;;;21.99;48.59;101352.19;5074756;27;47200;-70
2022/08/10 07:24:16;;;;;;;;;10.50;10.50;;;;;22.09;48.56;101352.31;5076646;27;45440;-69
2022/08/10 07:26:47;;;;;;;;;21.75;17.50;;;;;22.17;48.17;101353.47;5076527;28;45322;-70
2022/08/10 07:29:15;;;;;;;;;11.25;11.25;;;;;22.27;48.35;101358.97;5076785;27;45382;-70
2022/08/10 07:31:42;;;;;;;;;9.50;9.50;;;;;22.35;47.76;101350.31;5076507;27;45451;-72
2022/08/10 07:34:08;;;;;;;;;10.00;10.00;;;;;22.46;48.25;101360.25;5076278;27;45430;-71
2022/08/10 07:36:38;;;;;;;;;8.50;8.50;;;;;22.58;47.60;101350.34;5076588;27;45386;-71
2022/08/10 07:39:05;;;;;;;;;9.25;9.25;;;;;22.64;47.46;101349.03;5075944;27;45498;-71
2022/08/10 07:41:33;;;;;;;;;10.50;10.50;;;;;22.74;47.67;101355.38;5075955;27;45524;-70
2022/08/10 07:44:03;;;;;;;;;10.75;10.75;;;;;22.84;46.94;101356.34;5075308;27;45291;-71
2022/08/10 07:46:29;;;;;;;;;11.75;11.50;;;;;22.91;46.42;101360.22;5076738;27;45240;-73
2022/08/10 07:49:13;;;;;;;;;10.50;10.50;;;;;22.98;46.25;101365.09;5076589;27;45237;-75
2022/08/10 07:51:40;;;;;;;;;11.25;11.25;;;;;23.03;46.45;101355.72;5075909;27;45939;-74
2022/08/10 07:54:14;;;;;;;;;9.25;9.25;;;;;23.12;46.25;101359.47;5076260;27;45357;-69
2022/08/10 07:56:42;;;;;;;;;12.50;12.50;;;;;23.20;45.86;101359.69;5076608;27;45367;-74
2022/08/10 07:59:10;;;;;;;;;8.75;8.75;;;;;23.31;45.09;101368.72;5077615;27;45322;-73
2022/08/10 08:01:43;;;;;;;;;11.25;11.25;;;;;23.43;45.32;101364.19;5080076;27;45568;-70
2022/08/10 08:04:11;;;;;;;;;11.50;11.50;;;;;23.58;45.34;101370.13;5078603;27;45294;-73
2022/08/10 08:06:37;;;;;;;;;11.75;11.75;;;;;23.71;45.20;101368.13;5074390;27;45375;-72
2022/08/10 08:09:04;;;;;;;;;12.00;11.25;;;;;23.85;44.53;101368.78;5074622;27;45370;-74
2022/08/10 08:11:30;;;;;;;;;12.50;12.50;;;;;23.98;44.59;101372.13;5076065;27;46251;-74
2022/08/10 08:13:58;;;;;;;;;12.00;12.00;;;;;24.11;44.10;101374.66;5075665;27;45926;-69
2022/08/10 08:16:24;;;;;;;;;27.75;27.75;;;;;24.22;44.50;101371.03;5075788;27;45319;-70
2022/08/10 08:18:52;;;;;;;;;12.50;12.50;;;;;24.35;43.59;101376.22;5075726;27;45349;-69
2022/08/10 08:21:18;;;;;;;;;7.50;7.50;;;;;24.45;43.50;101374.44;5075808;28;45793;-69
2022/08/10 08:23:45;;;;;;;;;10.25;10.25;;;;;24.55;43.21;101354.81;5075293;27;45327;-69
2022/08/10 08:26:11;;;;;;;;;10.25;10.25;;;;;24.63;42.46;101355.84;5075061;27;45225;-69
2022/08/10 08:28:38;;;;;;;;;12.50;12.50;;;;;24.70;42.07;101355.31;5075241;27;45743;-69
2022/08/10 08:31:04;;;;;;;;;10.00;10.00;;;;;24.82;42.02;101358.75;5075401;27;45442;-70
2022/08/10 08:33:32;;;;;;;;;11.00;11.00;;;;;24.91;41.34;101355.25;5075662;28;45410;-70
2022/08/10 08:35:59;;;;;;;;;7.75;7.75;;;;;25.00;41.08;101351.75;5075510;27;45288;-70
2022/08/10 08:38:26;;;;;;;;;11.00;11.00;;;;;25.11;40.74;101350.78;5075465;27;45557;-70
2022/08/10 08:41:02;;;;;;;;;11.50;11.50;;;;;25.23;40.78;101346.97;5074955;27;45919;-70
2022/08/10 08:43:53;;;;;;;;;10.00;10.00;;;;;25.34;40.63;101348.69;5075436;27;45356;-69
2022/08/10 08:46:43;;;;;;;;;12.00;12.00;;;;;25.45;39.79;101345.06;5075462;27;45238;-72
2022/08/10 08:49:42;;;;;;;;;10.50;10.50;;;;;25.47;39.65;101348.47;5075469;27;45555;-73
2022/08/10 08:52:47;;;;;;;;;9.50;9.50;;;;;25.55;39.31;101350.44;5075065;27;45446;-71
2022/08/10 08:55:32;;;;;;;;;10.50;10.50;;;;;25.64;39.26;101348.75;5074527;27;45186;-69
2022/08/10 08:58:28;;;;;;;;;11.50;11.50;;;;;25.74;39.36;101348.72;5074857;27;45250;-70
2022/08/10 09:00:53;;;;;;;;;13.50;13.50;;;;;25.86;38.97;101347.56;5075192;27;45240;-72
2022/08/10 09:03:51;;;;;;;;;15.00;15.00;;;;;25.96;39.05;101342.19;5074575;28;45314;-69
2022/08/10 09:06:42;;;;;;;;;10.00;10.00;;;;;26.10;38.29;101332.81;5074707;28;45458;-70
2022/08/10 09:09:31;;;;;;;;;11.50;11.50;;;;;26.21;38.39;101338.06;5073284;27;45320;-69
2022/08/10 09:12:02;;;;;;;;;16.00;15.75;;;;;26.34;37.78;101337.72;5075175;27;45322;-71
2022/08/10 09:14:43;;;;;;;;;14.25;14.25;;;;;26.46;37.78;101338.38;5074575;28;45235;-73
2022/08/10 09:17:23;;;;;;;;;32.00;30.75;;;;;26.56;37.15;101330.28;5074682;27;45317;-70
2022/08/10 09:20:06;;;;;;;;;11.50;11.50;;;;;26.68;36.87;101329.06;5074915;27;45401;-70
2022/08/10 09:23:06;;;;;;;;;10.00;10.00;;;;;26.82;36.79;101327.69;5075193;27;45462;-70
2022/08/10 09:25:34;;;;;;;;;13.50;13.50;;;;;26.91;37.11;101323.28;5074636;27;46449;-68
2022/08/10 09:28:04;;;;;;;;;12.25;12.25;;;;;27.05;36.67;101326.47;5074599;27;45355;-71
2022/08/10 09:30:37;;;;;;;;;11.75;10.75;;;;;27.13;36.65;101315.75;5074832;27;45279;-68
2022/08/10 09:33:15;;;;;;;;;8.75;8.75;;;;;27.27;36.31;101319.78;5075197;27;45232;-69
2022/08/10 09:36:09;;;;;;;;;13.50;13.50;;;;;27.35;36.02;101314.47;5074588;28;45747;-68
2022/08/10 09:39:12;;;;;;;;;11.50;11.00;;;;;27.45;34.99;101318.94;5073008;28;45336;-70
2022/08/10 09:42:04;;;;;;;;;10.75;10.75;;;;;27.55;36.07;101317.88;5074743;28;45379;-69
2022/08/10 09:44:44;;;;;;;;;8.50;8.50;;;;;27.65;35.71;101320.50;5074768;27;45455;-70
2022/08/10 09:47:31;;;;;;;;;10.75;10.50;;;;;27.78;35.41;101316.53;5073002;27;48256;-69
2022/08/10 09:50:21;;;;;;;;;13.00;13.00;;;;;27.91;34.75;101313.44;5074488;27;45377;-68
2022/08/10 09:53:02;;;;;;;;;13.00;13.00;;;;;28.01;34.73;101308.75;5074556;28;45402;-68
2022/08/10 09:55:51;;;;;;;;;12.00;12.00;;;;;28.18;34.93;101314.28;5074807;27;45457;-68
2022/08/10 09:58:49;;;;;;;;;12.50;12.50;;;;;28.33;34.44;101303.75;5074150;28;45361;-69
2022/08/10 10:01:23;;;;;;;;;10.00;10.00;;;;;28.38;33.89;101312.22;5074037;27;45312;-69
2022/08/10 10:04:09;;;;;;;;;11.00;11.00;;;;;28.44;33.32;101300.75;5074453;27;45291;-73
2022/08/10 10:06:42;;;;;;;;;9.75;9.75;;;;;28.40;33.11;101293.97;5075546;27;45376;-69
2022/08/10 10:09:28;;;;;;;;;12.75;12.75;;;;;28.57;33.59;101297.56;5077914;27;45484;-72
2022/08/10 10:12:18;;;;;;;;;12.50;12.50;;;;;28.62;33.45;101295.22;5077399;27;45361;-69
2022/08/10 10:17:56;;;;;;;;;10.00;10.00;;;;;28.76;32.98;101295.63;5078214;27;45505;-69
2022/08/10 10:20:40;;;;;;;;;10.25;10.25;;;;;28.84;32.62;101291.09;5070782;27;46260;-74
2022/08/10 10:23:12;;;;;;;;;10.50;10.50;;;;;28.93;32.49;101289.25;5093582;27;45253;-70
2022/08/10 10:25:53;;;;;;;;;15.25;13.25;;;;;29.06;31.90;101287.94;5077816;27;45343;-68
2022/08/10 10:28:21;;;;;;;;;12.00;12.00;;;;;29.17;32.04;101282.19;5077705;27;45368;-69
2022/08/10 10:31:07;;;;;;;;;11.75;11.50;;;;;29.22;31.73;101279.00;5077070;27;45441;-70
2022/08/10 10:34:02;;;;;;;;;11.00;11.00;;;;;29.33;32.44;101272.38;5077015;27;45371;-69
2022/08/10 10:36:29;;;;;;;;;14.50;13.00;;;;;29.51;32.27;101278.50;5074782;27;45654;-74
2022/08/10 10:38:57;;;;;;;;;13.00;13.00;;;;;29.62;31.12;101277.31;5077302;27;45492;-71
2022/08/10 10:41:32;;;;;;;;;10.50;10.50;;;;;29.70;31.51;101274.59;5077058;27;46872;-69
2022/08/10 10:44:30;;;;;;;;;11.00;11.00;;;;;29.81;30.57;101265.28;5077944;27;45355;-75
2022/08/10 10:47:29;;;;;;;;;12.00;12.00;;;;;29.92;29.90;101261.31;5077592;28;45424;-72
2022/08/10 10:50:14;;;;;;;;;10.25;10.25;;;;;29.92;28.18;101263.22;5077181;27;45255;-70
2022/08/10 10:53:07;;;;;;;;;10.50;10.50;;;;;29.96;28.88;101256.41;5075813;27;46214;-73
2022/08/10 10:55:48;;;;;;;;;13.00;13.00;;;;;30.06;29.15;101257.09;5076737;27;45344;-74
2022/08/10 10:58:37;;;;;;;;;9.25;9.25;;;;;30.10;28.73;101261.16;5076610;27;45272;-70
2022/08/10 11:01:21;;;;;;;;;9.25;9.25;;;;;30.15;27.97;101255.19;5077189;27;45379;-70
2022/08/10 11:03:59;;;;;;;;;9.00;9.00;;;;;30.16;27.54;101249.59;5076542;27;45595;-70
2022/08/10 11:06:47;;;;;;;;;8.25;8.25;;;;;30.21;27.02;101242.81;5091950;27;45419;-68
2022/08/10 11:09:26;;;;;;;;;14.75;14.75;;;;;30.28;27.74;101241.94;5076562;28;45520;-69
2022/08/10 11:11:57;;;;;;;;;59.33;49.00;;;;;30.37;27.26;101236.47;5077072;27;45938;-69
2022/08/10 11:14:53;;;;;;;;;13.00;12.75;;;;;30.46;26.66;101240.81;5076024;27;45373;-68
2022/08/10 11:17:32;;;;;;;;;13.25;13.25;;;;;30.47;26.39;101228.94;5076344;27;45445;-69
2022/08/10 11:20:08;;;;;;;;;8.25;8.25;;;;;30.50;26.49;101230.44;5076144;27;45215;-68
2022/08/10 11:23:13;;;;;;;;;9.25;9.25;;;;;30.55;26.40;101228.03;5076766;27;45426;-68
2022/08/10 11:25:43;;;;;;;;;13.00;13.00;;;;;30.59;26.26;101232.13;5076996;28;45581;-70
2022/08/10 11:28:30;;;;;;;;;13.75;13.75;;;;;30.70;25.94;101229.00;5076907;28;45360;-69
2022/08/10 11:31:09;;;;;;;;;15.25;15.25;;;;;30.66;25.65;101224.94;5076544;28;45479;-69
2022/08/10 11:33:47;;;;;;;;;8.00;8.00;;;;;30.74;26.02;101222.19;5076571;27;45301;-70
2022/08/10 11:36:16;;;;;;;;;11.00;11.00;;;;;30.75;25.18;101214.91;5076859;28;46100;-70
2022/08/10 11:39:01;;;;;;;;;15.50;14.50;;;;;30.73;25.68;101220.50;5076696;27;45410;-70
2022/08/10 11:41:44;;;;;;;;;15.00;15.00;;;;;30.81;25.59;101203.31;5077042;27;45315;-68
2022/08/10 11:44:17;;;;;;;;;16.00;16.00;;;;;30.87;26.22;101204.47;5077072;27;45403;-69
2022/08/10 11:46:56;;;;;;;;;26.75;26.75;;;;;31.01;25.82;101213.69;5076227;27;45346;-70
2022/08/10 11:49:48;;;;;;;;;12.00;12.00;;;;;31.10;26.01;101199.00;5074792;27;45420;-71